Time;durP1;ratioP1;P1;durP2;ratioP2;P2;SDS_P1;SDS_P2;PMS_P1;PMS_P2;Temp;Humidity;BMP_temperature;BMP_pressure;BME280_temperature;BME280_humidity;BME280_pressure;Samples;Min_cycle;Max_cycle;Signal;HPM_P1;HPM_P2
2023/09/18 00:01:39;;;;;;;29.77;16.38;;;;;;;12.72;100.00;99961.66;5178072;27;20141;-64
2023/09/18 00:04:05;;;;;;;28.45;17.35;;;;;;;12.63;100.00;99961.09;5179175;27;20045;-62
2023/09/18 00:06:31;;;;;;;26.67;15.07;;;;;;;12.65;100.00;99963.47;5181649;27;20046;-63
2023/09/18 00:08:57;;;;;;;25.10;15.85;;;;;;;12.64;100.00;99959.13;5182158;27;20193;-64
2023/09/18 00:11:24;;;;;;;29.10;16.20;;;;;;;12.63;100.00;99961.09;5181861;27;20430;-63
2023/09/18 00:13:49;;;;;;;24.92;15.93;;;;;;;12.65;100.00;99953.25;5181832;27;20146;-64
2023/09/18 00:16:15;;;;;;;30.77;16.98;;;;;;;12.66;100.00;99946.63;5181800;27;20197;-63
2023/09/18 00:18:42;;;;;;;26.75;15.75;;;;;;;12.70;100.00;99946.69;5181683;27;20061;-61
2023/09/18 00:21:10;;;;;;;25.17;14.88;;;;;;;12.57;100.00;99943.25;5181801;27;20046;-63
2023/09/18 00:23:36;;;;;;;23.63;15.40;;;;;;;12.59;100.00;99940.16;5181249;27;20046;-62
2023/09/18 00:26:02;;;;;;;27.98;14.98;;;;;;;12.61;100.00;99946.88;5181709;27;20050;-63
2023/09/18 00:28:28;;;;;;;32.15;17.23;;;;;;;12.60;100.00;99944.50;5181391;27;20073;-64
2023/09/18 00:30:54;;;;;;;25.85;15.27;;;;;;;12.52;100.00;99949.03;5181770;27;20046;-63
2023/09/18 00:33:20;;;;;;;30.67;15.13;;;;;;;12.54;100.00;99940.44;5181254;27;20065;-64
2023/09/18 00:35:47;;;;;;;24.92;15.38;;;;;;;12.48;100.00;99934.41;5181670;27;20052;-61
2023/09/18 00:38:13;;;;;;;29.35;15.57;;;;;;;12.52;100.00;99932.53;5181012;27;20046;-63
2023/09/18 00:40:39;;;;;;;29.20;16.55;;;;;;;12.51;100.00;99933.69;5181376;27;20069;-61
2023/09/18 00:43:05;;;;;;;28.13;15.75;;;;;;;12.54;100.00;99929.44;5180970;27;20084;-61
2023/09/18 00:45:31;;;;;;;27.75;14.57;;;;;;;12.49;100.00;99933.25;5181220;27;20149;-62
2023/09/18 00:47:57;;;;;;;23.23;15.55;;;;;;;12.50;100.00;99939.56;5181181;27;20101;-63
2023/09/18 00:50:24;;;;;;;22.67;15.25;;;;;;;12.53;100.00;99936.91;5181162;27;20046;-64
2023/09/18 00:52:50;;;;;;;23.63;14.73;;;;;;;12.44;100.00;99939.03;5181319;27;20058;-63
2023/09/18 00:55:16;;;;;;;22.63;15.05;;;;;;;12.54;100.00;99932.97;5180923;27;20137;-62
2023/09/18 00:57:43;;;;;;;28.65;15.93;;;;;;;12.46;100.00;99932.03;5181268;27;20133;-64
2023/09/18 01:00:10;;;;;;;25.20;16.63;;;;;;;12.37;100.00;99925.13;5180909;27;20092;-62
2023/09/18 01:02:36;;;;;;;24.80;15.77;;;;;;;12.37;100.00;99925.13;5181229;27;20137;-63
2023/09/18 01:05:03;;;;;;;24.52;15.85;;;;;;;12.44;100.00;99922.53;5180802;27;20050;-63
2023/09/18 01:07:28;;;;;;;25.08;16.40;;;;;;;12.46;100.00;99923.78;5181231;27;20272;-62
2023/09/18 01:09:55;;;;;;;23.60;15.40;;;;;;;12.35;100.00;99913.69;5180917;27;20174;-61
2023/09/18 01:12:30;;;;;;;26.95;15.60;;;;;;;12.42;100.00;99911.09;5180598;27;20487;-63
2023/09/18 01:15:02;;;;;;;49.20;16.83;;;;;;;12.43;100.00;99918.22;5180987;27;20145;-62
2023/09/18 01:17:29;;;;;;;24.17;14.55;;;;;;;12.42;100.00;99916.59;5179760;27;20046;-63
2023/09/18 01:19:56;;;;;;;24.63;15.93;;;;;;;12.46;100.00;99917.47;5180815;27;20141;-64
2023/09/18 01:22:22;;;;;;;26.42;16.38;;;;;;;12.39;100.00;99917.31;5180456;27;20128;-61
2023/09/18 01:24:49;;;;;;;24.95;15.23;;;;;;;12.35;100.00;99928.22;5180789;27;20464;-62
2023/09/18 01:27:17;;;;;;;27.13;15.52;;;;;;;12.35;100.00;99919.19;5180669;27;20145;-61
2023/09/18 01:29:43;;;;;;;28.58;14.73;;;;;;;12.35;100.00;99925.47;5180852;27;20046;-63
2023/09/18 01:32:09;;;;;;;25.17;15.93;;;;;;;12.39;100.00;99922.81;5180297;27;20137;-63
2023/09/18 01:34:39;;;;;;;26.23;16.50;;;;;;;12.36;100.00;99927.09;5180744;27;20156;-61
2023/09/18 01:37:07;;;;;;;25.48;15.13;;;;;;;12.32;100.00;99926.19;5180310;27;20050;-64
2023/09/18 01:39:34;;;;;;;27.58;15.95;;;;;;;12.37;100.00;99920.44;5180330;27;20110;-63
2023/09/18 01:42:02;;;;;;;29.38;15.80;;;;;;;12.35;100.00;99928.22;5180275;27;20058;-62
2023/09/18 01:44:29;;;;;;;26.38;14.60;;;;;;;12.37;100.00;99925.94;5180197;27;20528;-63
2023/09/18 01:46:58;;;;;;;25.98;15.48;;;;;;;12.39;100.00;99929.09;5180517;27;20056;-64
2023/09/18 01:49:28;;;;;;;26.80;14.68;;;;;;;12.33;100.00;99922.31;5179980;27;20416;-63
2023/09/18 01:51:54;;;;;;;24.70;15.93;;;;;;;12.22;100.00;99919.28;5180436;27;20057;-63
2023/09/18 01:54:20;;;;;;;28.25;16.20;;;;;;;12.18;100.00;99901.13;5179955;27;20332;-61
2023/09/18 01:56:46;;;;;;;28.08;15.82;;;;;;;12.13;100.00;99882.97;5180433;27;20046;-61
2023/09/18 01:59:12;;;;;;;28.25;16.60;;;;;;;12.23;100.00;99876.91;5179799;27;20084;-62
2023/09/18 02:01:38;;;;;;;28.17;17.35;;;;;;;12.30;100.00;99883.75;5180098;27;20133;-61
2023/09/18 02:04:05;;;;;;;29.40;14.68;;;;;;;12.06;100.00;99893.78;5180077;27;20414;-61
2023/09/18 02:06:31;;;;;;;29.17;15.43;;;;;;;12.25;100.00;99866.34;5179895;27;20050;-61
2023/09/18 02:08:57;;;;;;;28.98;15.70;;;;;;;12.45;100.00;99885.63;5179829;27;20056;-62
2023/09/18 02:11:23;;;;;;;31.30;15.27;;;;;;;12.33;100.00;99911.31;5179761;27;20102;-64
2023/09/18 02:13:48;;;;;;;28.48;15.27;;;;;;;12.43;100.00;99908.00;5179888;27;20123;-64
2023/09/18 02:16:15;;;;;;;25.48;15.23;;;;;;;12.47;100.00;99908.88;5179635;27;20057;-64
2023/09/18 02:18:41;;;;;;;24.23;15.52;;;;;;;12.38;100.00;99923.97;5179878;27;20050;-64
2023/09/18 02:21:07;;;;;;;31.27;15.48;;;;;;;12.48;100.00;99928.91;5179562;27;20078;-64
2023/09/18 02:23:33;;;;;;;22.83;14.68;;;;;;;12.57;100.00;99934.22;5179844;27;20148;-64
2023/09/18 02:25:59;;;;;;;28.75;14.98;;;;;;;12.40;100.00;99943.66;5179507;27;20042;-63
2023/09/18 02:28:25;;;;;;;26.83;15.52;;;;;;;12.48;100.00;99931.66;5179782;27;20046;-61
2023/09/18 02:30:51;;;;;;;36.53;16.83;;;;;;;12.54;100.00;99932.97;5179296;27;20047;-63
2023/09/18 02:33:18;;;;;;;23.45;14.30;;;;;;;12.67;100.00;99936.41;5179577;27;20464;-62
2023/09/18 02:35:44;;;;;;;29.77;15.35;;;;;;;12.62;100.00;99945.72;5179648;27;20114;-63
2023/09/18 02:38:09;;;;;;;21.83;14.38;;;;;;;12.76;100.00;99936.97;5179394;27;20107;-62
2023/09/18 02:40:35;;;;;;;18.98;13.05;;;;;;;12.54;100.00;99948.69;5179595;27;20438;-61
2023/09/18 02:43:02;;;;;;;27.98;14.65;;;;;;;12.66;100.00;99951.28;5179262;27;20431;-61
2023/09/18 02:45:28;;;;;;;21.75;15.25;;;;;;;12.60;100.00;99939.81;5179565;27;20065;-63
2023/09/18 02:47:54;;;;;;;22.42;15.38;;;;;;;12.57;100.00;99937.75;5179072;27;20427;-61
2023/09/18 02:50:20;;;;;;;25.58;14.73;;;;;;;12.48;100.00;99928.91;5179565;27;20046;-61
2023/09/18 02:52:46;;;;;;;25.40;15.10;;;;;;;12.54;100.00;99926.69;5179099;27;20149;-62
2023/09/18 02:55:13;;;;;;;25.45;15.00;;;;;;;12.56;100.00;99919.69;5179428;27;20050;-61
2023/09/18 02:57:39;;;;;;;28.48;15.13;;;;;;;12.56;100.00;99919.69;5178954;27;20042;-63
2023/09/18 03:00:06;;;;;;;27.50;15.85;;;;;;;12.52;100.00;99927.03;5179370;27;20134;-64
2023/09/18 03:02:32;;;;;;;27.40;15.73;;;;;;;12.47;100.00;99925.38;5178796;27;20056;-63
2023/09/18 03:04:58;;;;;;;24.08;15.82;;;;;;;12.42;100.00;99919.34;5179123;27;20058;-63
2023/09/18 03:07:29;;;;;;;25.88;15.55;;;;;;;12.36;100.00;99918.03;5179120;27;20042;-62
2023/09/18 03:09:55;;;;;;;24.35;14.90;;;;;;;12.28;100.00;99919.81;5178697;27;20416;-64
2023/09/18 03:12:22;;;;;;;25.50;15.77;;;;;;;12.39;100.00;99915.34;5179144;27;20060;-64
2023/09/18 03:14:48;;;;;;;24.20;14.57;;;;;;;12.38;100.00;99907.47;5178873;27;20064;-62
2023/09/18 03:17:14;;;;;;;26.50;15.65;;;;;;;12.30;100.00;99909.28;5179044;27;20190;-64
2023/09/18 03:19:40;;;;;;;27.52;16.10;;;;;;;12.16;100.00;99897.94;5178746;27;20054;-63
2023/09/18 03:22:06;;;;;;;26.90;15.05;;;;;;;12.24;100.00;99900.50;5179100;27;20058;-62
2023/09/18 03:24:32;;;;;;;23.02;14.77;;;;;;;12.27;100.00;99898.19;5178500;27;20427;-62
2023/09/18 03:26:58;;;;;;;26.98;14.90;;;;;;;12.21;100.00;99894.91;5179136;27;20048;-61
2023/09/18 03:29:24;;;;;;;22.60;15.18;;;;;;;12.15;100.00;99894.38;5178823;27;20061;-62
2023/09/18 03:31:50;;;;;;;22.98;14.75;;;;;;;12.01;100.00;99894.06;5178745;27;20308;-62
2023/09/18 03:34:16;;;;;;;29.85;14.73;;;;;;;11.92;100.00;99854.97;5178425;27;20423;-62
2023/09/18 03:36:42;;;;;;;23.88;14.98;;;;;;;12.17;100.00;99844.56;5178622;27;20064;-63
2023/09/18 03:39:09;;;;;;;28.02;15.45;;;;;;;12.16;100.00;99867.69;5179538;27;20046;-64
2023/09/18 03:41:36;;;;;;;27.83;16.00;;;;;;;12.15;100.00;99886.16;5182074;27;20407;-64
2023/09/18 03:44:02;;;;;;;25.95;15.77;;;;;;;12.16;100.00;99893.25;5182448;27;20046;-62
2023/09/18 03:46:28;;;;;;;24.55;15.55;;;;;;;12.05;100.00;99897.69;5182150;27;20050;-63
2023/09/18 03:48:54;;;;;;;28.23;15.90;;;;;;;12.09;100.00;99895.03;5182472;27;20305;-62
2023/09/18 03:51:20;;;;;;;25.45;14.75;;;;;;;12.10;100.00;99894.69;5181898;27;20050;-61
2023/09/18 03:53:48;;;;;;;24.60;14.82;;;;;;;12.14;100.00;99897.50;5182443;27;20140;-61
2023/09/18 03:56:13;;;;;;;23.65;15.43;;;;;;;12.16;100.00;99907.00;5181904;27;20046;-63
2023/09/18 03:58:40;;;;;;;29.13;16.30;;;;;;;12.17;100.00;99894.03;5181752;27;20331;-63
2023/09/18 04:01:06;;;;;;;24.95;15.52;;;;;;;12.24;100.00;99900.50;5182149;27;20046;-64
2023/09/18 04:03:31;;;;;;;24.48;15.25;;;;;;;12.26;100.00;99900.13;5182027;27;20136;-63
2023/09/18 04:05:57;;;;;;;26.27;15.50;;;;;;;12.27;100.00;99904.50;5182072;27;20046;-65
2023/09/18 04:08:23;;;;;;;25.38;15.82;;;;;;;12.28;100.00;99906.06;5182005;27;20404;-65
2023/09/18 04:10:49;;;;;;;22.98;14.52;;;;;;;12.35;100.00;99913.69;5181845;27;20092;-64
2023/09/18 04:13:15;;;;;;;22.70;14.55;;;;;;;12.28;100.00;99928.06;5181731;27;20054;-63
2023/09/18 04:15:42;;;;;;;23.42;13.75;;;;;;;12.36;100.00;99921.59;5181976;27;20042;-62
2023/09/18 04:18:08;;;;;;;22.20;15.48;;;;;;;12.39;100.00;99926.34;5181530;27;20065;-63
2023/09/18 04:20:35;;;;;;;22.20;14.20;;;;;;;12.49;100.00;99922.25;5181949;27;20073;-62
2023/09/18 04:23:21;;;;;;;24.65;14.32;;;;;;;12.54;100.00;99934.94;5181332;27;20050;-62
2023/09/18 04:25:47;;;;;;;22.50;14.25;;;;;;;12.37;100.00;99933.38;5181541;27;20054;-62
2023/09/18 04:28:13;;;;;;;24.70;14.27;;;;;;;12.71;100.00;99921.56;5181563;27;20057;-63
2023/09/18 04:30:39;;;;;;;19.88;12.88;;;;;;;12.91;100.00;99943.59;5181552;27;20487;-64
2023/09/18 04:33:06;;;;;;;22.67;12.88;;;;;;;13.23;100.00;99965.44;5181591;27;20137;-63
2023/09/18 04:35:32;;;;;;;20.85;12.55;;;;;;;13.62;100.00;100000.09;5181453;27;20046;-63
2023/09/18 04:37:59;;;;;;;17.70;12.93;;;;;;;14.02;100.00;100012.63;5181503;27;20122;-62
2023/09/18 04:40:26;;;;;;;24.75;12.70;;;;;;;14.47;100.00;99999.19;5181258;27;20050;-65
2023/09/18 04:42:52;;;;;;;21.20;12.10;;;;;;;15.05;100.00;99908.50;5181293;27;20050;-63
2023/09/18 04:45:18;;;;;;;18.88;11.63;;;;;;;15.54;100.00;99733.34;5180637;27;20050;-62
2023/09/18 04:47:44;;;;;;;19.60;11.90;;;;;;;15.80;100.00;99524.25;5181356;27;20052;-63
2023/09/18 04:50:11;;;;;;;20.58;11.73;;;;;;;16.06;100.00;99265.94;5180094;27;20158;-64
2023/09/18 04:52:37;;;;;;;23.98;10.15;;;;;;;16.57;100.00;99058.97;5180548;27;20042;-62
2023/09/18 04:55:05;;;;;;;19.85;11.07;;;;;;;17.01;100.00;98867.13;5180529;27;20419;-63
2023/09/18 04:57:31;;;;;;;17.80;11.35;;;;;;;17.14;100.00;98709.47;5180753;27;20137;-64
2023/09/18 04:59:57;;;;;;;18.95;16.20;;;;;;;17.49;100.00;98640.78;5180814;27;20057;-64
2023/09/18 05:02:25;;;;;;;21.80;12.00;;;;;;;17.80;100.00;98616.50;5180879;27;20067;-65
2023/09/18 05:04:51;;;;;;;23.55;18.83;;;;;;;18.02;100.00;98598.19;5180564;27;20061;-63
2023/09/18 05:07:17;;;;;;;17.52;12.82;;;;;;;18.18;100.00;98583.56;5179561;27;20050;-65
2023/09/18 05:09:43;;;;;;;22.10;10.05;;;;;;;18.64;100.00;98594.84;5180299;27;20057;-66
2023/09/18 05:12:15;;;;;;;22.02;16.08;;;;;;;19.01;100.00;98591.53;5181052;27;20046;-66
2023/09/18 05:14:41;;;;;;;18.10;9.80;;;;;;;19.18;100.00;98611.75;5180637;27;20104;-66
2023/09/18 05:17:10;;;;;;;18.90;11.63;;;;;;;18.92;100.00;98608.03;5180618;27;20082;-65
2023/09/18 05:19:36;;;;;;;19.75;11.68;;;;;;;18.50;100.00;98582.84;5179990;27;20343;-67
2023/09/18 05:22:03;;;;;;;15.95;10.32;;;;;;;18.28;100.00;98574.22;5180618;27;20042;-67
2023/09/18 05:24:29;;;;;;;20.52;11.52;;;;;;;18.01;100.00;98596.63;5180327;27;20399;-66
2023/09/18 05:26:55;;;;;;;15.07;10.38;;;;;;;17.70;100.00;98634.09;5180241;27;20060;-65
2023/09/18 05:29:21;;;;;;;14.70;10.18;;;;;;;17.80;100.00;98631.13;5180292;27;20049;-65
2023/09/18 05:31:47;;;;;;;15.75;9.90;;;;;;;17.64;100.00;98664.28;5180494;27;20074;-68
2023/09/18 05:34:13;;;;;;;16.60;11.50;;;;;;;17.40;100.00;98710.63;5180266;27;20046;-67
2023/09/18 05:36:39;;;;;;;14.70;11.02;;;;;;;17.74;100.00;98763.09;5180235;27;20084;-66
2023/09/18 05:39:09;;;;;;;16.50;10.10;;;;;;;17.80;100.00;98652.53;5179937;27;20137;-61
2023/09/18 05:41:36;;;;;;;17.95;10.18;;;;;;;18.12;100.00;98621.34;5179973;27;20085;-63
2023/09/18 05:44:04;;;;;;;12.73;10.13;;;;;;;18.76;100.00;98572.75;5179934;27;20335;-64
2023/09/18 05:46:30;;;;;;;13.73;10.10;;;;;;;19.31;100.00;98561.78;5179809;27;20200;-64
2023/09/18 05:48:58;;;;;;;15.73;13.98;;;;;;;20.07;100.00;98644.72;5179120;27;20046;-62
2023/09/18 05:51:24;;;;;;;12.98;9.57;;;;;;;20.71;100.00;98764.56;5180192;27;20054;-62
2023/09/18 05:53:50;;;;;;;13.88;9.95;;;;;;;20.99;100.00;98831.81;5180133;27;20046;-64
2023/09/18 05:56:17;;;;;;;18.77;9.93;;;;;;;21.30;100.00;98873.91;5179916;27;20069;-64
2023/09/18 05:58:43;;;;;;;16.30;10.52;;;;;;;21.34;100.00;98924.75;5180047;27;20144;-66
2023/09/18 06:01:09;;;;;;;12.82;9.48;;;;;;;21.75;100.00;98914.78;5180117;27;20050;-66
2023/09/18 06:03:35;;;;;;;14.73;10.40;;;;;;;21.78;100.00;98978.06;5178928;27;20330;-65
2023/09/18 06:06:01;;;;;;;15.93;8.90;;;;;;;22.12;100.00;98963.41;5179755;27;20099;-63
2023/09/18 06:08:28;;;;;;;20.50;9.05;;;;;;;22.48;100.00;99020.94;5179044;27;20054;-65
2023/09/18 06:10:55;;;;;;;17.88;9.35;;;;;;;22.76;100.00;99064.69;5179992;27;20388;-63
2023/09/18 06:13:21;;;;;;;18.00;9.40;;;;;;;23.26;100.00;99079.03;5179512;27;20054;-64
2023/09/18 06:15:47;;;;;;;17.25;13.15;;;;;;;23.27;100.00;99107.75;5179934;27;20141;-63
2023/09/18 06:18:13;;;;;;;18.58;12.30;;;;;;;23.20;100.00;99081.59;5179632;27;20508;-63
2023/09/18 06:20:41;;;;;;;17.60;11.80;;;;;;;23.80;100.00;99100.28;5179717;27;20046;-63
2023/09/18 06:23:07;;;;;;;15.07;9.13;;;;;;;24.05;100.00;99116.13;5179385;27;20061;-64
2023/09/18 06:25:32;;;;;;;16.42;10.23;;;;;;;24.12;100.00;99110.25;5179510;27;20049;-60
2023/09/18 06:28:00;;;;;;;14.77;8.95;;;;;;;24.25;100.00;99129.00;5179217;27;20049;-62
2023/09/18 06:30:26;;;;;;;12.10;8.38;;;;;;;23.78;100.00;99124.34;5179075;27;20331;-62
2023/09/18 06:32:53;;;;;;;10.00;7.72;;;;;;;24.54;100.00;99146.28;5179190;27;20042;-63
2023/09/18 06:35:19;;;;;;;18.42;11.18;;;;;;;25.14;100.00;99161.16;5178927;27;20064;-62
2023/09/18 06:37:45;;;;;;;12.32;10.23;;;;;;;25.30;100.00;99153.22;5179483;27;20129;-62
2023/09/18 06:40:11;;;;;;;17.73;10.68;;;;;;;25.50;100.00;99166.03;5179204;27;20450;-65
2023/09/18 06:42:37;;;;;;;15.57;11.55;;;;;;;25.82;100.00;99192.72;5179449;27;20042;-62
2023/09/18 06:45:06;;;;;;;16.55;13.05;;;;;;;25.83;100.00;99185.88;5178884;27;20054;-62
2023/09/18 06:47:32;;;;;;;13.18;10.20;;;;;;;26.37;100.00;99209.53;5179130;27;20060;-63
2023/09/18 06:50:00;;;;;;;11.80;10.43;;;;;;;26.65;100.00;99215.09;5178759;27;20061;-62
2023/09/18 06:52:26;;;;;;;11.68;10.15;;;;;;;26.75;100.00;99230.66;5178922;27;20145;-62
2023/09/18 06:54:52;;;;;;;12.52;10.73;;;;;;;26.14;100.00;99229.84;5177834;27;20050;-64
2023/09/18 06:57:19;;;;;;;15.10;9.75;;;;;;;26.98;100.00;99244.00;5178534;27;20050;-63
2023/09/18 06:59:46;;;;;;;12.43;9.77;;;;;;;27.25;100.00;99250.03;5178720;27;20136;-64
2023/09/18 07:02:14;;;;;;;12.10;9.38;;;;;;;26.73;100.00;99233.97;5178655;27;20046;-63
2023/09/18 07:04:44;;;;;;;11.93;8.75;;;;;;;26.68;100.00;99237.41;5178144;27;20464;-64
2023/09/18 07:07:12;;;;;;;9.45;8.32;;;;;;;27.21;100.00;99227.69;5171959;27;20071;-65
2023/09/18 07:09:38;;;;;;;9.27;8.18;;;;;;;26.61;100.00;99243.38;5167812;27;20046;-64
2023/09/18 07:12:04;;;;;;;12.70;8.23;;;;;;;26.02;100.00;99234.38;5178066;27;20132;-64
2023/09/18 07:14:31;;;;;;;11.32;8.40;;;;;;;26.84;100.00;99246.75;5176947;27;20125;-62
2023/09/18 07:16:57;;;;;;;13.35;8.05;;;;;;;26.39;100.00;99237.94;5178472;27;20050;-62
2023/09/18 07:19:22;;;;;;;9.38;7.28;;;;;;;25.96;100.00;99231.44;5178625;27;20050;-63
2023/09/18 07:21:49;;;;;;;11.77;7.70;;;;;;;25.85;100.00;99239.53;5178515;27;20046;-62
2023/09/18 07:24:16;;;;;;;12.57;8.35;;;;;;;26.94;100.00;99245.44;5178229;27;20404;-61
2023/09/18 07:26:46;;;;;;;8.48;7.38;;;;;;;27.48;100.00;99254.13;5178340;27;20072;-62
2023/09/18 07:29:13;;;;;;;9.82;8.38;;;;;;;27.73;100.00;99253.66;5178350;27;20047;-63
2023/09/18 07:31:40;;;;;;;10.13;7.55;;;;;;;27.28;100.00;99261.09;5178633;27;20046;-60
2023/09/18 07:34:06;;;;;;;9.27;7.72;;;;;;;27.85;100.00;99263.88;5178381;27;20046;-64
2023/09/18 07:36:32;;;;;;;8.75;7.93;;;;;;;26.70;100.00;99256.63;5178165;27;20460;-60
2023/09/18 07:38:58;;;;;;;13.45;8.55;;;;;;;27.10;100.00;99244.28;5177899;27;20050;-61
2023/09/18 07:41:25;;;;;;;8.70;7.90;;;;;;;26.00;100.00;99214.41;5178235;27;20042;-60
2023/09/18 07:43:51;;;;;;;12.98;8.50;;;;;;;25.94;100.00;99210.66;5175982;27;20105;-59
2023/09/18 07:46:17;;;;;;;10.77;9.10;;;;;;;25.27;100.00;99189.84;5157267;27;20125;-61
2023/09/18 07:48:43;;;;;;;13.43;8.82;;;;;;;24.78;100.00;99140.91;5157417;27;20133;-62
2023/09/18 07:51:11;;;;;;;11.15;8.57;;;;;;;25.01;100.00;99133.19;5157165;27;20054;-61
2023/09/18 07:53:37;;;;;;;14.48;10.02;;;;;;;24.27;100.00;99104.88;5157199;27;20065;-63
2023/09/18 07:56:04;;;;;;;10.02;8.75;;;;;;;24.72;100.00;99113.94;5157425;27;20137;-62
2023/09/18 07:58:33;;;;;;;10.57;8.10;;;;;;;24.93;100.00;99123.53;5157269;27;20051;-62
2023/09/18 08:00:59;;;;;;;9.90;6.43;;;;;;;25.34;100.00;99134.19;5157151;27;20046;-63
2023/09/18 08:03:26;;;;;;;10.77;6.50;;;;;;;25.79;100.00;99113.00;5157094;27;20046;-61
2023/09/18 08:05:53;;;;;;;9.32;6.25;;;;;;;25.60;100.00;99161.97;5156973;27;20428;-62
2023/09/18 08:08:20;;;;;;;9.18;7.40;;;;;;;26.48;100.00;99186.56;5156837;27;20452;-62
2023/09/18 08:10:46;;;;;;;16.48;8.65;;;;;;;25.33;100.00;99166.31;5157273;27;20074;-63
2023/09/18 08:13:12;;;;;;;12.05;7.80;;;;;;;25.62;100.00;99184.72;5157169;27;20141;-61
2023/09/18 08:15:39;;;;;;;9.68;7.55;;;;;;;25.00;100.00;99142.88;5157014;27;20051;-63
2023/09/18 08:18:05;;;;;;;14.18;9.77;;;;;;;26.62;100.00;99177.44;5156795;27;20141;-62
2023/09/18 08:20:32;;;;;;;8.85;7.65;;;;;;;27.36;100.00;99211.66;5157028;27;20112;-60
2023/09/18 08:23:01;;;;;;;11.02;7.15;;;;;;;27.51;100.00;99222.19;5156877;27;20046;-63
2023/09/18 08:25:27;;;;;;;11.70;7.72;;;;;;;28.29;100.00;99223.75;5158469;27;20047;-63
2023/09/18 08:27:53;;;;;;;11.88;8.45;;;;;;;28.38;100.00;99220.06;5160316;27;20046;-62
2023/09/18 08:30:20;;;;;;;8.70;7.53;;;;;;;28.24;100.00;99223.66;5160716;27;20141;-61
2023/09/18 08:32:47;;;;;;;8.95;7.57;;;;;;;28.91;100.00;99233.28;5160265;27;20050;-61
2023/09/18 08:35:13;;;;;;;10.05;7.70;;;;;;;28.47;100.00;99231.28;5160524;27;20046;-62
2023/09/18 08:37:40;;;;;;;8.75;7.38;;;;;;;28.53;100.00;99228.56;5160085;27;20149;-60
2023/09/18 08:40:09;;;;;;;10.02;7.60;;;;;;;28.58;100.00;99231.47;5160180;27;20046;-59
2023/09/18 08:42:38;;;;;;;9.80;8.70;;;;;;;28.18;100.00;99220.72;5160389;27;20077;-59
2023/09/18 08:45:07;;;;;;;11.20;7.30;;;;;;;28.72;100.00;99231.94;5160082;27;20082;-62
2023/09/18 08:47:34;;;;;;;13.70;8.25;;;;;;;27.75;100.00;99237.03;5160171;27;20180;-59
2023/09/18 08:50:01;;;;;;;14.25;8.50;;;;;;;28.41;100.00;99230.41;5160104;27;20065;-59
2023/09/18 08:52:28;;;;;;;11.30;8.65;;;;;;;28.55;100.00;99240.88;5160293;27;20133;-59
2023/09/18 08:54:55;;;;;;;12.85;7.72;;;;;;;28.90;100.00;99231.72;5159898;27;20149;-62
2023/09/18 08:57:22;;;;;;;9.32;8.10;;;;;;;28.03;100.00;99228.41;5160333;27;20047;-58
2023/09/18 08:59:49;;;;;;;16.60;9.23;;;;;;;27.23;100.00;99204.72;5159890;27;20432;-61
2023/09/18 09:02:15;;;;;;;13.73;8.57;;;;;;;26.92;100.00;99183.25;5160443;27;20050;-60
2023/09/18 09:04:41;;;;;;;14.30;9.80;;;;;;;27.30;100.00;99176.97;5159691;27;20093;-61
2023/09/18 09:07:08;;;;;;;12.32;9.57;;;;;;;25.87;100.00;99175.25;5160105;27;20051;-63
2023/09/18 09:09:35;;;;;;;11.27;8.45;;;;;;;25.92;100.00;99157.75;5159789;27;20191;-60
2023/09/18 09:12:01;;;;;;;12.88;8.50;;;;;;;26.74;100.00;99161.63;5159807;27;20078;-62
2023/09/18 09:14:28;;;;;;;11.35;7.95;;;;;;;27.56;100.00;99190.56;5159808;27;20500;-61
2023/09/18 09:16:56;;;;;;;9.43;7.93;;;;;;;26.56;100.00;99184.97;5159686;27;20058;-61
2023/09/18 09:19:30;;;;;;;13.05;7.90;;;;;;;26.76;100.00;99164.75;5159723;27;20050;-61
2023/09/18 09:21:58;;;;;;;9.50;7.70;;;;;;;28.00;100.00;99192.72;5159553;27;20050;-64
2023/09/18 09:24:38;;;;;;;10.88;7.88;;;;;;;28.24;100.00;99184.19;5159723;27;20051;-63
2023/09/18 09:27:04;;;;;;;8.77;7.88;;;;;;;27.34;100.00;99165.53;5159227;27;20366;-65
2023/09/18 09:29:31;;;;;;;8.23;7.20;;;;;;;27.85;100.00;99198.31;5159889;27;20133;-63
2023/09/18 09:32:12;;;;;;;9.20;7.50;;;;;;;27.01;100.00;99176.81;5159312;27;20047;-64
2023/09/18 09:34:38;;;;;;;10.05;7.03;;;;;;;26.66;100.00;99169.63;5159344;27;20065;-64
2023/09/18 09:37:04;;;;;;;8.10;6.80;;;;;;;27.29;100.00;99183.06;5158751;27;20047;-63
2023/09/18 09:39:30;;;;;;;8.98;8.02;;;;;;;28.10;100.00;99194.19;5159228;27;20093;-61
2023/09/18 09:42:00;;;;;;;9.63;8.07;;;;;;;27.61;100.00;99190.66;5159508;27;20061;-63
2023/09/18 09:44:28;;;;;;;11.57;8.18;;;;;;;28.41;100.00;99192.97;5159061;27;20050;-61
2023/09/18 09:46:54;;;;;;;8.98;6.80;;;;;;;27.35;100.00;99210.06;5159357;27;20043;-62
2023/09/18 09:49:22;;;;;;;10.73;7.07;;;;;;;26.85;100.00;99190.00;5158983;27;20115;-60
2023/09/18 09:51:48;;;;;;;8.13;6.88;;;;;;;26.95;100.00;99190.75;5159341;27;20042;-62
2023/09/18 09:54:14;;;;;;;13.90;8.43;;;;;;;27.47;100.00;99187.81;5158759;27;20081;-62
2023/09/18 09:56:44;;;;;;;10.45;7.72;;;;;;;28.25;100.00;99206.25;5158618;27;20412;-62
2023/09/18 09:59:13;;;;;;;7.68;6.70;;;;;;;27.73;100.00;99200.13;5158885;27;20046;-61
2023/09/18 10:01:40;;;;;;;10.10;6.72;;;;;;;27.30;100.00;99179.03;5158840;27;20050;-60
2023/09/18 10:04:10;;;;;;;5.82;5.15;;;;;;;26.32;100.00;99176.41;5158921;27;20047;-63
2023/09/18 10:06:38;;;;;;;6.82;5.03;;;;;;;25.27;100.00;99170.22;5158689;27;20373;-63
2023/09/18 10:09:07;;;;;;;5.50;4.85;;;;;;;24.92;100.00;99111.50;5158845;27;20324;-66
2023/09/18 10:11:36;;;;;;;7.10;5.18;;;;;;;25.11;100.00;99109.53;5158800;27;20050;-66
2023/09/18 10:14:08;;;;;;;6.43;4.97;;;;;;;25.58;100.00;99137.16;5159120;27;20127;-64
2023/09/18 10:16:36;;;;;;;7.95;5.60;;;;;;;25.29;100.00;99129.22;5158600;27;20335;-66
2023/09/18 10:19:09;;;;;;;9.98;5.85;;;;;;;25.18;100.00;99133.72;5158739;27;20051;-66
2023/09/18 10:21:42;;;;;;;6.00;5.20;;;;;;;25.57;100.00;99132.03;5157722;27;20050;-63
2023/09/18 10:24:18;;;;;;;5.70;5.05;;;;;;;25.18;100.00;99114.09;5158350;27;20050;-65
2023/09/18 10:26:50;;;;;;;6.47;4.60;;;;;;;25.28;100.00;99124.84;5157581;27;20112;-64
2023/09/18 10:29:19;;;;;;;6.35;5.47;;;;;;;25.64;100.00;99134.53;5158479;27;20103;-67
2023/09/18 10:31:47;;;;;;;9.32;5.93;;;;;;;26.54;100.00;99156.56;5158677;27;20137;-65
2023/09/18 10:34:16;;;;;;;10.65;6.30;;;;;;;25.89;100.00;99157.91;5158364;27;20054;-67
2023/09/18 10:36:44;;;;;;;15.98;9.70;;;;;;;26.00;100.00;99144.97;5158119;27;20467;-60
2023/09/18 10:39:47;;;;;;;10.05;5.65;;;;;;;25.40;100.00;99117.53;5157940;27;20420;-63
2023/09/18 10:42:16;;;;;;;7.40;3.47;;;;;;;25.94;100.00;99134.84;5158169;27;20378;-63
2023/09/18 10:44:43;;;;;;;5.18;3.03;;;;;;;25.89;100.00;99133.44;5157986;27;20395;-63
2023/09/18 10:47:11;;;;;;;8.15;4.20;;;;;;;26.98;100.00;99154.00;5157876;27;20329;-64
2023/09/18 10:49:37;;;;;;;9.85;5.10;;;;;;;27.63;100.00;99176.88;5156937;27;20043;-63
2023/09/18 10:52:04;;;;;;;12.68;5.90;;;;;;;27.71;100.00;99170.88;5157730;27;20043;-65
2023/09/18 10:54:31;;;;;;;10.73;5.22;;;;;;;27.45;100.00;99158.09;5157905;27;20129;-64
2023/09/18 10:56:58;;;;;;;9.55;5.82;;;;;;;26.56;100.00;99168.13;5157390;27;20209;-61
2023/09/18 10:59:24;;;;;;;8.38;4.70;;;;;;;25.63;100.00;99107.72;5157758;27;20335;-61
2023/09/18 11:01:50;;;;;;;5.43;4.32;;;;;;;25.66;100.00;99081.50;5158168;27;20047;-64
2023/09/18 11:04:20;;;;;;;7.07;5.13;;;;;;;26.14;100.00;99103.44;5157991;27;20046;-63
2023/09/18 11:07:04;;;;;;;6.55;4.90;;;;;;;26.22;100.00;99091.34;5157104;27;20076;-63
2023/09/18 11:09:33;;;;;;;10.57;5.72;;;;;;;25.45;100.00;99066.38;5157995;27;20151;-61
2023/09/18 11:12:03;;;;;;;9.57;6.35;;;;;;;25.49;100.00;99049.38;5157104;27;20042;-62
2023/09/18 11:14:42;;;;;;;8.15;6.18;;;;;;;25.01;100.00;99010.56;5157197;27;20055;-63